.
WxDataArchive / Data Records for 2014-04-28
2014-04-27 April 2014 2014-04-29

Data Records for Monday, 28 April 2014

Time	Temp	Chill	HIndex	Humid	Dewpt	 Wind 	HiWind	WindDir	Rain 	Barom
-----	----	-----	------	-----	-----	------	------	-------	-----	-----
00:00	46.2	43.1	46.2	50	28.6	6	14	90	0.00	29.947 
00:05	46.1	43.0	46.1	50	28.5	6	13	90	0.00	29.947 
00:10	46.2	42.6	46.2	50	28.6	7	15	90	0.00	29.947 
00:15	46.2	43.1	46.2	50	28.6	6	13	112	0.00	29.932 
00:20	46.2	43.1	46.2	50	28.6	6	11	90	0.00	29.932 
00:25	46.2	43.8	46.2	50	28.6	5	11	90	0.00	29.932 
00:30	46.2	42.6	46.2	50	28.6	7	14	112	0.00	29.942 
00:35	46.2	43.8	46.2	51	29.1	5	13	90	0.00	29.942 
00:40	46.2	43.1	46.2	51	29.1	6	14	112	0.00	29.942 
00:45	46.1	43.6	46.1	51	29.0	5	13	90	0.00	29.943 
00:50	46.1	43.6	46.1	52	29.5	5	11	90	0.00	29.943 
00:55	46.1	44.4	46.1	52	29.5	4	10	90	0.00	29.943 
01:00	46.0	44.2	46.0	53	29.8	4	14	90	0.00	29.945 
01:05	46.0	43.5	46.0	49	27.9	5	10	112	0.00	29.945 
01:10	46.0	43.5	46.0	52	29.4	5	10	90	0.00	29.945 
01:15	46.0	46.0	46.0	52	29.4	3	11	90	0.00	29.954 
01:20	46.1	44.4	46.1	51	29.0	4	11	90	0.00	29.954 
01:25	46.4	43.4	46.4	51	29.3	6	12	90	0.00	29.954 
01:30	46.5	44.1	46.5	51	29.4	5	11	90	0.00	29.954 
01:35	46.7	43.7	46.7	50	29.1	6	12	112	0.00	29.954 
01:40	46.7	44.3	46.7	50	29.1	5	12	112	0.00	29.954 
01:45	46.7	45.1	46.7	51	29.5	4	10	112	0.00	29.944 
01:50	46.7	45.1	46.7	51	29.5	4	11	112	0.00	29.944 
01:55	46.7	44.3	46.7	51	29.5	5	12	90	0.00	29.944 
02:00	46.5	43.5	46.5	51	29.4	6	14	112	0.00	29.940 
02:05	46.5	46.5	46.5	51	29.4	3	10	90	0.00	29.940 
02:10	46.5	44.8	46.5	51	29.4	4	11	90	0.00	29.940 
02:15	46.5	44.8	46.5	52	29.8	4	11	90	0.00	29.953 
02:20	46.5	46.5	46.5	52	29.8	3	8	112	0.00	29.953 
02:25	46.5	44.1	46.5	52	29.8	5	11	90	0.00	29.953 
02:30	46.7	45.1	46.7	52	30.0	4	10	90	0.00	29.945 
02:35	46.8	44.5	46.8	53	30.6	5	13	90	0.00	29.945 
02:40	46.8	46.8	46.8	52	30.1	3	7	90	0.00	29.945 
02:45	46.8	45.2	46.8	53	30.6	4	7	90	0.00	29.939 
02:50	46.8	46.8	46.8	57	32.4	3	11	90	0.00	29.939 
02:55	46.4	44.7	46.4	58	32.4	4	10	90	0.00	29.939 
03:00	46.2	44.5	46.2	58	32.2	4	11	90	0.00	29.924 
03:05	46.2	44.5	46.2	58	32.2	4	10	112	0.00	29.924 
03:10	46.2	44.5	46.2	58	32.2	4	9	90	0.00	29.924 
03:15	46.2	44.5	46.2	58	32.2	4	10	112	0.00	29.909 
03:20	46.2	44.5	46.2	58	32.2	4	12	112	0.00	29.909 
03:25	46.4	44.0	46.4	58	32.4	5	13	90	0.00	29.909 
03:30	46.2	44.5	46.2	59	32.7	4	10	112	0.00	29.902 
03:35	46.2	43.1	46.2	59	32.7	6	12	112	0.00	29.902 
03:40	46.2	43.1	46.2	59	32.7	6	11	90	0.00	29.902 
03:45	46.2	42.6	46.2	59	32.7	7	12	112	0.00	29.890 
03:50	46.2	43.1	46.2	60	33.1	6	15	112	0.00	29.890 
03:55	46.1	44.4	46.1	61	33.4	4	10	112	0.00	29.890 
04:00	46.1	43.6	46.1	61	33.4	5	11	112	0.00	29.879 
04:05	46.1	44.4	46.1	61	33.4	4	12	90	0.00	29.879 
04:10	46.1	43.6	46.1	61	33.4	5	12	112	0.00	29.879 
04:15	46.1	43.6	46.1	62	33.8	5	10	90	0.00	29.878 
04:20	46.0	43.5	46.0	62	33.7	5	11	90	0.00	29.878 
04:25	46.0	44.2	46.0	62	33.7	4	11	90	0.00	29.878 
04:30	46.1	43.6	46.1	62	33.8	5	11	90	0.00	29.874 
04:35	46.2	43.8	46.2	62	33.9	5	12	90	0.00	29.874 
04:40	46.4	46.4	46.4	62	34.1	3	9	90	0.00	29.874 
04:45	46.5	44.1	46.5	61	33.8	5	11	90	0.00	29.848 
04:50	46.7	43.7	46.7	61	34.0	6	14	112	0.00	29.848 
04:55	46.7	44.3	46.7	62	34.4	5	12	90	0.00	29.848 
05:00	46.7	44.3	46.7	62	34.4	5	11	112	0.00	29.831 
05:05	46.7	43.7	46.7	62	34.4	6	12	112	0.00	29.831 
05:10	46.7	44.3	46.7	62	34.4	5	15	90	0.00	29.831 
05:15	46.7	43.7	46.7	62	34.4	6	12	90	0.00	29.831 
05:20	46.7	43.7	46.7	62	34.4	6	11	90	0.00	29.831 
05:25	46.7	43.7	46.7	62	34.4	6	11	112	0.00	29.831 
05:30	46.7	43.7	46.7	62	34.4	6	13	90	0.00	29.829 
05:35	46.7	44.3	46.7	62	34.4	5	12	90	0.00	29.829 
05:40	46.7	44.3	46.7	62	34.4	5	11	112	0.00	29.829 
05:45	46.7	44.3	46.7	62	34.4	5	12	112	0.00	29.826 
05:50	46.7	44.3	46.7	62	34.4	5	12	90	0.00	29.826 
05:55	46.8	44.5	46.8	61	34.1	5	11	90	0.00	29.826 
06:00	47.0	45.4	47.0	61	34.3	4	10	90	0.00	29.824 
06:05	47.1	44.8	47.1	61	34.4	5	12	90	0.00	29.824 
06:10	47.3	45.0	47.3	61	34.5	5	11	90	0.00	29.824 
06:15	47.4	45.2	47.4	60	34.2	5	12	90	0.00	29.830 
06:20	47.4	45.2	47.4	60	34.2	5	12	90	0.00	29.830 
06:25	47.4	45.2	47.4	60	34.2	5	13	112	0.00	29.830 
06:30	47.4	45.9	47.4	60	34.2	4	8	90	0.00	29.826 
06:35	47.4	45.9	47.4	60	34.2	4	10	90	0.00	29.826 
06:40	47.4	45.9	47.4	61	34.6	4	12	90	0.00	29.826 
06:45	47.4	45.2	47.4	60	34.2	5	11	90	0.00	29.832 
06:50	47.4	44.6	47.4	62	35.0	6	14	90	0.00	29.832 
06:55	47.3	45.0	47.3	63	35.4	5	10	90	0.00	29.832 
07:00	47.0	44.1	47.0	64	35.5	6	13	90	0.00	29.834 
07:05	46.8	44.5	46.8	65	35.7	5	14	90	0.00	29.834 
07:10	46.8	43.9	46.8	65	35.7	6	14	90	0.00	29.834 
07:15	46.7	43.7	46.7	67	36.3	6	11	112	0.00	29.819 
07:20	46.4	44.0	46.4	68	36.4	5	10	112	0.00	29.819 
07:25	46.4	43.4	46.4	68	36.4	6	12	112	0.00	29.819 
07:30	46.4	43.4	46.4	67	36.0	6	13	90	0.00	29.818 
07:35	46.5	43.5	46.5	66	35.8	6	12	112	0.00	29.818 
07:40	46.7	44.3	46.7	67	36.3	5	11	90	0.00	29.818 
07:45	46.7	43.7	46.7	66	36.0	6	13	112	0.00	29.804 
07:50	46.7	43.2	46.7	66	36.0	7	14	90	0.00	29.804 
07:55	46.8	43.9	46.8	66	36.0	6	15	90	0.00	29.804 
08:00	46.7	44.3	46.7	68	36.7	5	11	90	0.00	29.799 
08:05	46.7	44.3	46.7	68	36.7	5	13	90	0.00	29.799 
08:10	46.5	44.1	46.5	69	36.9	5	11	90	0.00	29.799 
08:15	46.5	44.8	46.5	70	37.3	4	12	112	0.00	29.806 
08:20	46.5	46.5	46.5	69	36.9	3	8	90	0.00	29.806 
08:25	46.5	46.5	46.5	70	37.3	3	7	112	0.00	29.806 
08:30	46.5	44.8	46.5	70	37.3	4	7	90	0.00	29.821 
08:35	46.4	44.7	46.4	71	37.5	4	9	90	0.00	29.821 
08:40	46.4	46.4	46.4	72	37.9	3	7	90	0.00	29.821 
08:45	46.2	46.2	46.2	74	38.4	3	6	90	0.01	29.823 
08:50	46.0	46.0	46.0	76	38.9	2	6	90	0.00	29.823 
08:55	46.0	46.0	46.0	77	39.2	1	5	90	0.01	29.823 
09:00	45.7	45.7	45.7	79	39.6	2	7	90	0.00	29.825 
09:05	45.5	45.5	45.5	79	39.4	3	6	112	0.01	29.825 
09:10	45.2	43.3	45.2	81	39.7	4	10	90	0.02	29.825 
09:15	44.9	43.0	44.9	82	39.7	4	10	90	0.01	29.836 
09:20	44.8	42.9	44.8	83	40.0	4	11	90	0.02	29.836 
09:25	44.6	42.6	44.6	84	40.1	4	10	90	0.00	29.836 
09:30	44.5	42.5	44.5	84	40.0	4	9	90	0.02	29.841 
09:35	44.3	41.5	44.3	85	40.1	5	13	90	0.01	29.841 
09:40	44.2	41.4	44.2	86	40.3	5	11	90	0.02	29.841 
09:45	44.1	41.3	44.1	87	40.5	5	12	90	0.02	29.840 
09:50	43.9	41.1	43.9	87	40.3	5	11	90	0.03	29.840 
09:55	43.8	40.9	43.8	88	40.5	5	16	90	0.02	29.840 
10:00	43.8	40.9	43.8	88	40.5	5	13	90	0.03	29.840 
10:05	43.6	40.0	43.6	89	40.6	6	14	112	0.03	29.840 
10:10	43.6	39.5	43.6	89	40.6	7	15	90	0.01	29.840 
10:15	43.6	40.0	43.6	90	40.9	6	13	90	0.01	29.820 
10:20	43.8	40.3	43.8	90	41.1	6	12	90	0.00	29.820 
10:25	43.6	39.5	43.6	90	40.9	7	18	90	0.01	29.820 
10:30	43.8	40.9	43.8	90	41.1	5	13	112	0.01	29.815 
10:35	43.8	40.3	43.8	90	41.1	6	12	112	0.01	29.815 
10:40	43.8	40.3	43.8	90	41.1	6	15	90	0.00	29.815 
10:45	43.9	39.8	43.9	93	42.0	7	15	112	0.01	29.811 
10:50	43.9	40.4	43.9	90	41.2	6	17	112	0.00	29.811 
10:55	44.1	40.6	44.1	90	41.4	6	12	112	0.00	29.811 
11:00	44.2	40.2	44.2	90	41.5	7	16	112	0.00	29.803 
11:05	44.3	40.3	44.3	89	41.3	7	16	112	0.00	29.803 
11:10	44.3	40.3	44.3	89	41.3	7	17	112	0.04	29.803 
11:15	44.2	40.2	44.2	90	41.5	7	15	90	0.00	29.807 
11:20	44.2	41.4	44.2	90	41.5	5	14	90	0.00	29.807 
11:25	44.2	42.2	44.2	90	41.5	4	12	112	0.00	29.807 
11:30	44.3	40.3	44.3	90	41.6	7	17	90	0.00	29.801 
11:35	44.3	39.0	44.3	89	41.3	10	17	112	0.01	29.801 
11:40	44.5	39.2	44.5	89	41.5	10	22	90	0.00	29.801 
11:45	44.6	39.7	44.6	89	41.6	9	19	90	0.00	29.750 
11:50	44.8	40.0	44.8	89	41.8	9	18	112	0.00	29.750 
11:55	45.1	40.0	45.1	88	41.8	10	20	90	0.00	29.750 
12:00	45.2	42.0	45.2	88	41.9	6	16	112	0.00	29.753 
12:05	45.2	41.4	45.2	88	41.9	7	14	90	0.00	29.753 
12:10	45.4	42.2	45.4	88	42.1	6	13	112	0.00	29.753 
12:15	45.5	42.3	45.5	88	42.2	6	11	90	0.00	29.771 
12:20	45.5	42.3	45.5	87	41.9	6	12	90	0.00	29.771 
12:25	45.5	42.3	45.5	87	41.9	6	14	90	0.00	29.771 
12:30	45.5	41.8	45.5	86	41.6	7	18	90	0.00	29.777 
12:35	45.7	42.5	45.7	86	41.8	6	12	90	0.00	29.777 
12:40	45.7	43.9	45.7	86	41.8	4	12	112	0.00	29.777 
12:45	45.8	43.3	45.8	86	41.9	5	13	90	0.00	29.789 
12:50	45.7	42.0	45.7	86	41.8	7	14	90	0.00	29.789 
12:55	45.8	43.3	45.8	86	41.9	5	13	112	0.00	29.789 
13:00	45.8	43.3	45.8	86	41.9	5	12	90	0.00	29.800 
13:05	46.0	42.9	46.0	86	42.0	6	13	90	0.00	29.800 
13:10	46.0	41.9	46.0	85	41.7	8	15	90	0.00	29.800 
13:15	46.1	42.5	46.1	85	41.8	7	16	90	0.00	29.792 
13:20	46.2	43.1	46.2	86	42.2	6	12	112	0.00	29.792 
13:25	46.2	42.6	46.2	87	42.5	7	14	90	0.00	29.792 
13:30	46.0	42.9	46.0	88	42.6	6	15	90	0.01	29.803 
13:35	46.0	42.9	46.0	89	42.9	6	11	90	0.00	29.803 
13:40	45.8	42.1	45.8	90	43.0	7	13	90	0.00	29.803 
13:45	45.8	43.3	45.8	90	43.0	5	11	90	0.00	29.799 
13:50	45.8	42.7	45.8	91	43.3	6	15	90	0.00	29.799 
13:55	45.8	42.1	45.8	91	43.3	7	14	90	0.00	29.799 
14:00	45.7	42.0	45.7	91	43.2	7	16	90	0.00	29.778 
14:05	45.8	41.7	45.8	91	43.3	8	16	90	0.00	29.778 
14:10	46.0	42.9	46.0	92	43.8	6	11	90	0.00	29.778 
14:15	46.0	42.4	46.0	92	43.8	7	15	90	0.00	29.776 
14:20	46.0	42.4	46.0	92	43.8	7	12	112	0.00	29.776 
14:25	46.0	42.4	46.0	92	43.8	7	17	90	0.00	29.776 
14:30	46.1	42.5	46.1	92	43.9	7	15	90	0.00	29.775 
14:35	46.2	42.1	46.2	92	44.0	8	13	90	0.00	29.775 
14:40	46.4	42.9	46.4	92	44.2	7	13	90	0.00	29.775 
14:45	46.4	42.9	46.4	92	44.2	7	19	90	0.00	29.764 
14:50	46.4	42.9	46.4	92	44.2	7	17	112	0.00	29.764 
14:55	46.5	44.1	46.5	92	44.3	5	13	90	0.00	29.764 
15:00	46.5	43.5	46.5	92	44.3	6	13	90	0.00	29.781 
15:05	46.5	43.0	46.5	92	44.3	7	14	90	0.00	29.781 
15:10	46.7	43.2	46.7	91	44.2	7	13	90	0.00	29.781 
15:15	46.7	43.7	46.7	91	44.2	6	13	90	0.00	29.778 
15:20	46.5	43.0	46.5	91	44.0	7	15	90	0.00	29.778 
15:25	46.7	42.7	46.7	90	43.9	8	14	112	0.00	29.778 
15:30	46.7	43.2	46.7	90	43.9	7	15	90	0.00	29.788 
15:35	46.8	43.9	46.8	90	44.0	6	14	90	0.00	29.788 
15:40	47.0	44.1	47.0	90	44.2	6	14	90	0.00	29.788 
15:45	47.0	44.1	47.0	90	44.2	6	12	90	0.00	29.808 
15:50	47.1	45.5	47.1	91	44.6	4	7	90	0.00	29.808 
15:55	47.1	44.8	47.1	91	44.6	5	11	90	0.00	29.808 
16:00	47.3	44.5	47.3	91	44.8	6	15	112	0.00	29.805 
16:05	47.4	44.6	47.4	91	44.9	6	11	90	0.00	29.805 
16:10	47.4	45.2	47.4	91	44.9	5	11	90	0.00	29.805 
16:15	47.4	44.6	47.4	91	44.9	6	10	90	0.00	29.806 
16:20	47.3	44.5	47.3	91	44.8	6	12	90	0.00	29.806 
16:25	47.3	44.5	47.3	91	44.8	6	13	90	0.00	29.806 
16:30	47.4	44.6	47.4	91	44.9	6	13	90	0.00	29.785 
16:35	47.4	45.9	47.4	91	44.9	4	9	90	0.00	29.785 
16:40	47.4	44.1	47.4	91	44.9	7	13	90	0.00	29.785 
16:45	47.3	44.5	47.3	92	45.1	6	12	90	0.00	29.772 
16:50	47.4	44.1	47.4	92	45.2	7	13	90	0.00	29.772 
16:55	47.4	44.1	47.4	91	44.9	7	15	112	0.00	29.772 
17:00	47.4	44.1	47.4	91	44.9	7	14	112	0.00	29.748 
17:05	47.7	45.5	47.7	92	45.5	5	14	90	0.00	29.748 
17:10	47.9	45.2	47.9	92	45.7	6	13	90	0.00	29.748 
17:15	47.9	45.2	47.9	91	45.4	6	15	90	0.00	29.743 
17:20	48.2	46.1	48.2	91	45.7	5	15	112	0.00	29.743 
17:25	48.0	44.8	48.0	91	45.5	7	15	112	0.00	29.743 
17:30	48.2	45.0	48.2	90	45.4	7	15	90	0.00	29.711 
17:35	48.2	45.0	48.2	90	45.4	7	17	112	0.00	29.711 
17:40	48.2	44.6	48.2	90	45.4	8	16	90	0.00	29.711 
17:45	48.2	45.5	48.2	90	45.4	6	14	90	0.00	29.682 
17:50	48.0	46.6	48.0	90	45.2	4	14	90	0.00	29.682 
17:55	48.0	45.9	48.0	90	45.2	5	11	90	0.00	29.682 
18:00	48.0	45.9	48.0	89	44.9	5	12	112	0.00	29.699 
18:05	48.0	46.6	48.0	89	44.9	4	11	90	0.00	29.699 
18:10	48.0	44.8	48.0	89	44.9	7	13	112	0.00	29.699 
18:15	48.2	46.8	48.2	89	45.1	4	10	112	0.00	29.709 
18:20	48.2	45.5	48.2	89	45.1	6	12	112	0.00	29.709 
18:25	48.2	48.2	48.2	89	45.1	3	7	90	0.00	29.709 
18:30	48.2	46.1	48.2	89	45.1	5	11	112	0.00	29.710 
18:35	48.2	46.1	48.2	89	45.1	5	12	90	0.00	29.710 
18:40	48.2	46.1	48.2	89	45.1	5	12	90	0.00	29.710 
18:45	48.2	46.8	48.2	89	45.1	4	11	90	0.00	29.704 
18:50	48.2	46.8	48.2	89	45.1	4	11	90	0.00	29.704 
18:55	48.2	46.8	48.2	89	45.1	4	11	90	0.00	29.704 
19:00	48.2	46.8	48.2	89	45.1	4	10	90	0.00	29.710 
19:05	48.2	48.2	48.2	89	45.1	3	10	90	0.00	29.710 
19:10	48.2	46.8	48.2	89	45.1	4	11	112	0.00	29.710 
19:15	48.2	48.2	48.2	88	44.8	3	9	112	0.00	29.714 
19:20	48.2	46.1	48.2	88	44.8	5	11	90	0.00	29.714 
19:25	48.2	46.1	48.2	88	44.8	5	12	112	0.00	29.714 
19:30	48.3	46.9	48.3	89	45.2	4	11	90	0.00	29.707 
19:35	48.3	46.2	48.3	89	45.2	5	11	112	0.00	29.707 
19:40	48.3	46.9	48.3	89	45.2	4	12	90	0.00	29.707 
19:45	48.3	45.6	48.3	89	45.2	6	12	90	0.00	29.707 
19:50	48.3	46.9	48.3	89	45.2	4	12	90	0.00	29.707 
19:55	48.2	46.1	48.2	89	45.1	5	11	90	0.00	29.707 
20:00	48.2	46.8	48.2	89	45.1	4	10	112	0.00	29.710 
20:05	48.0	45.9	48.0	90	45.2	5	14	90	0.00	29.710 
20:10	48.0	45.9	48.0	90	45.2	5	13	90	0.00	29.710 
20:15	47.9	45.8	47.9	90	45.1	5	13	112	0.00	29.711 
20:20	47.7	44.4	47.7	90	44.9	7	13	90	0.00	29.711 
20:25	47.7	45.5	47.7	90	44.9	5	12	112	0.00	29.711 
20:30	47.7	46.2	47.7	90	44.9	4	12	90	0.00	29.710 
20:35	47.7	44.9	47.7	91	45.2	6	14	112	0.00	29.710 
20:40	47.6	45.4	47.6	91	45.1	5	14	90	0.00	29.710 
20:45	47.6	44.8	47.6	91	45.1	6	13	90	0.00	29.696 
20:50	47.6	44.8	47.6	91	45.1	6	13	90	0.00	29.696 
20:55	47.4	45.2	47.4	91	44.9	5	14	90	0.00	29.696 
21:00	47.4	45.2	47.4	91	44.9	5	16	90	0.00	29.698 
21:05	47.4	45.9	47.4	91	44.9	4	10	90	0.00	29.698 
21:10	47.3	44.5	47.3	91	44.8	6	13	112	0.00	29.698 
21:15	47.3	44.5	47.3	92	45.1	6	14	112	0.00	29.690 
21:20	47.3	44.5	47.3	92	45.1	6	13	90	0.00	29.690 
21:25	47.3	45.0	47.3	92	45.1	5	13	90	0.00	29.690 
21:30	47.3	45.0	47.3	92	45.1	5	12	90	0.00	29.692 
21:35	47.3	45.0	47.3	92	45.1	5	12	90	0.00	29.692 
21:40	47.3	45.0	47.3	92	45.1	5	17	90	0.00	29.692 
21:45	47.3	45.0	47.3	92	45.1	5	13	90	0.00	29.688 
21:50	47.3	45.8	47.3	92	45.1	4	11	90	0.00	29.688 
21:55	47.3	45.0	47.3	92	45.1	5	15	90	0.00	29.688 
22:00	47.3	45.8	47.3	92	45.1	4	11	90	0.00	29.690 
22:05	47.3	45.0	47.3	92	45.1	5	11	90	0.00	29.690 
22:10	47.3	44.5	47.3	92	45.1	6	16	90	0.00	29.690 
22:15	47.4	45.2	47.4	93	45.5	5	17	112	0.00	29.693 
22:20	47.4	44.6	47.4	93	45.5	6	13	90	0.00	29.693 
22:25	47.4	44.6	47.4	93	45.5	6	12	90	0.00	29.693 
22:30	47.4	44.6	47.4	93	45.5	6	13	112	0.00	29.671 
22:35	47.4	43.6	47.4	93	45.5	8	15	112	0.00	29.671 
22:40	47.4	44.6	47.4	93	45.5	6	13	90	0.00	29.671 
22:45	47.4	45.2	47.4	93	45.5	5	11	90	0.00	29.678 
22:50	47.6	45.4	47.6	93	45.7	5	11	90	0.00	29.678 
22:55	47.6	46.1	47.6	93	45.7	4	10	90	0.00	29.678 
23:00	47.6	47.6	47.6	93	45.7	2	12	90	0.00	29.682 
23:05	47.7	44.9	47.7	93	45.8	6	13	112	0.00	29.682 
23:10	47.7	47.7	47.7	93	45.8	3	7	112	0.00	29.682 
23:15	47.7	46.2	47.7	93	45.8	4	10	90	0.00	29.689 
23:20	47.7	44.9	47.7	93	45.8	6	14	90	0.00	29.689 
23:25	47.7	44.9	47.7	94	46.1	6	11	90	0.00	29.689 
23:30	47.7	46.2	47.7	94	46.1	4	9	90	0.00	29.682 
23:35	47.9	47.9	47.9	94	46.3	3	7	90	0.00	29.682 
23:40	47.9	46.4	47.9	94	46.3	4	11	90	0.00	29.682 
23:45	47.9	47.9	47.9	94	46.3	3	11	90	0.00	29.681 
23:50	47.9	46.4	47.9	94	46.3	4	10	90	0.00	29.681 
23:55	48.0	46.6	48.0	94	46.4	4	7	90	0.00	29.681 

CoCoRaHS
IN-AL-39
A2 Web Hosting
Creative Commons License
GoDaddy
search engine by freefind advanced

loaded 2018-11-15 05:13:31 • last modified 2010-11-18 10:43:29
Privacy PolicyDisclaimer
• wx.awcolley.com is powered by PmWiki v.2002016 •
• all content (unless otherwise noted) © 2018 A W Colley